Pepinster, Belgium
Current Conditions -  °F | °C
As of 1:50 AM on Saturday 20 Dec 2014 (Local Time) from EBLG Reporting Station
Clear Clear  
Wind Chill: 29°   Ceiling: Unl
Heat Index: 37°   Visibility: 6mi
Dew Point: 34°   Wind: 15mph
Humidity: 87%   Direction: 240°WSW
Pressure: 30.18"   Gusts: NA
Location:  50.57°N, 5.8°E
Report Text: EBLG 200050Z 24013KT CAVOK 03/01 Q1022 NOSIG
Loading
Personal Weather Stations






























Interactive Weather Map New forecast layout! Learn more

10-Day Weather Forecast

Advertisements
Track Severe Weather on mobile